sensor_id;sensor_type;location;lat;lon;timestamp;pressure;altitude;pressure_sealevel;temperature;humidity
59417;BME280;45222;52.458;20.914;2023-03-25T00:02:55;99499.80;;;9.45;84.01
59417;BME280;45222;52.458;20.914;2023-03-25T00:06:40;99499.21;;;9.46;84.07
59417;BME280;45222;52.458;20.914;2023-03-25T00:10:25;99496.58;;;9.48;84.19
59417;BME280;45222;52.458;20.914;2023-03-25T00:14:10;99489.79;;;9.49;84.39
59417;BME280;45222;52.458;20.914;2023-03-25T00:17:55;99485.55;;;9.48;84.25
59417;BME280;45222;52.458;20.914;2023-03-25T00:21:40;99478.16;;;9.45;84.37
59417;BME280;45222;52.458;20.914;2023-03-25T00:25:27;99484.29;;;9.43;84.35
59417;BME280;45222;52.458;20.914;2023-03-25T00:29:13;99488.22;;;9.39;84.61
59417;BME280;45222;52.458;20.914;2023-03-25T00:32:58;99498.50;;;9.36;84.98
59417;BME280;45222;52.458;20.914;2023-03-25T00:36:44;99491.11;;;9.35;85.21
59417;BME280;45222;52.458;20.914;2023-03-25T00:40:31;99482.98;;;9.34;85.29
59417;BME280;45222;52.458;20.914;2023-03-25T00:44:18;99493.46;;;9.31;85.19
59417;BME280;45222;52.458;20.914;2023-03-25T00:48:03;99491.27;;;9.26;85.24
59417;BME280;45222;52.458;20.914;2023-03-25T00:51:48;99482.49;;;9.24;85.39
59417;BME280;45222;52.458;20.914;2023-03-25T00:55:33;99483.50;;;9.25;85.64
59417;BME280;45222;52.458;20.914;2023-03-25T00:59:18;99481.98;;;9.24;85.80
59417;BME280;45222;52.458;20.914;2023-03-25T01:03:03;99496.48;;;9.22;85.91
59417;BME280;45222;52.458;20.914;2023-03-25T01:06:48;99497.42;;;9.18;86.01
59417;BME280;45222;52.458;20.914;2023-03-25T01:10:36;99497.63;;;9.11;85.97
59417;BME280;45222;52.458;20.914;2023-03-25T01:14:22;99498.79;;;9.03;85.86
59417;BME280;45222;52.458;20.914;2023-03-25T01:18:09;99496.87;;;8.96;86.00
59417;BME280;45222;52.458;20.914;2023-03-25T01:21:54;99494.98;;;8.85;86.09
59417;BME280;45222;52.458;20.914;2023-03-25T01:25:39;99493.73;;;8.79;86.30
59417;BME280;45222;52.458;20.914;2023-03-25T01:29:24;99487.46;;;8.74;86.63
59417;BME280;45222;52.458;20.914;2023-03-25T01:33:10;99482.48;;;8.71;86.70
59417;BME280;45222;52.458;20.914;2023-03-25T01:36:55;99476.10;;;8.68;86.65
59417;BME280;45222;52.458;20.914;2023-03-25T01:40:41;99476.08;;;8.61;86.48
59417;BME280;45222;52.458;20.914;2023-03-25T01:48:51;99483.98;;;8.42;86.70
59417;BME280;45222;52.458;20.914;2023-03-25T01:52:37;99487.04;;;8.38;86.99
59417;BME280;45222;52.458;20.914;2023-03-25T01:56:25;99490.00;;;8.36;87.06
59417;BME280;45222;52.458;20.914;2023-03-25T02:00:13;99497.44;;;8.32;86.95
59417;BME280;45222;52.458;20.914;2023-03-25T02:04:00;99499.77;;;8.28;86.98
59417;BME280;45222;52.458;20.914;2023-03-25T02:07:54;99499.88;;;8.26;87.08
59417;BME280;45222;52.458;20.914;2023-03-25T02:11:41;99500.73;;;8.24;87.39
59417;BME280;45222;52.458;20.914;2023-03-25T02:15:26;99504.23;;;8.21;87.39
59417;BME280;45222;52.458;20.914;2023-03-25T02:24:19;99501.60;;;8.07;87.30
59417;BME280;45222;52.458;20.914;2023-03-25T02:28:19;99497.39;;;8.03;87.53
59417;BME280;45222;52.458;20.914;2023-03-25T02:32:18;99493.64;;;8.00;87.76
59417;BME280;45222;52.458;20.914;2023-03-25T02:36:39;99486.84;;;7.98;87.78
59417;BME280;45222;52.458;20.914;2023-03-25T02:40:30;99486.15;;;7.94;87.81
59417;BME280;45222;52.458;20.914;2023-03-25T02:44:23;99487.10;;;7.93;87.83
59417;BME280;45222;52.458;20.914;2023-03-25T02:48:11;99488.27;;;7.91;88.03
59417;BME280;45222;52.458;20.914;2023-03-25T02:52:03;99487.52;;;7.88;88.29
59417;BME280;45222;52.458;20.914;2023-03-25T02:55:54;99488.44;;;7.87;88.30
59417;BME280;45222;52.458;20.914;2023-03-25T02:59:43;99491.25;;;7.84;88.34
59417;BME280;45222;52.458;20.914;2023-03-25T03:03:29;99493.79;;;7.80;88.22
59417;BME280;45222;52.458;20.914;2023-03-25T03:07:21;99492.34;;;7.77;88.25
59417;BME280;45222;52.458;20.914;2023-03-25T03:11:12;99490.50;;;7.75;88.16
59417;BME280;45222;52.458;20.914;2023-03-25T03:15:10;99497.34;;;7.72;88.32
59417;BME280;45222;52.458;20.914;2023-03-25T03:19:05;99502.19;;;7.67;88.25
59417;BME280;45222;52.458;20.914;2023-03-25T03:22:57;99498.88;;;7.59;88.12
59417;BME280;45222;52.458;20.914;2023-03-25T03:26:48;99504.31;;;7.53;88.16
59417;BME280;45222;52.458;20.914;2023-03-25T03:30:44;99506.52;;;7.48;88.38
59417;BME280;45222;52.458;20.914;2023-03-25T03:34:32;99509.33;;;7.45;88.37
59417;BME280;45222;52.458;20.914;2023-03-25T03:38:23;99511.83;;;7.41;88.53
59417;BME280;45222;52.458;20.914;2023-03-25T03:42:14;99511.29;;;7.34;88.50
59417;BME280;45222;52.458;20.914;2023-03-25T03:46:05;99504.16;;;7.27;88.54
59417;BME280;45222;52.458;20.914;2023-03-25T03:49:55;99504.96;;;7.25;88.85
59417;BME280;45222;52.458;20.914;2023-03-25T03:53:45;99509.09;;;7.24;88.96
59417;BME280;45222;52.458;20.914;2023-03-25T03:57:35;99510.92;;;7.23;89.02
59417;BME280;45222;52.458;20.914;2023-03-25T04:01:27;99511.05;;;7.20;88.96
59417;BME280;45222;52.458;20.914;2023-03-25T04:05:18;99510.27;;;7.18;89.05
59417;BME280;45222;52.458;20.914;2023-03-25T04:09:10;99513.01;;;7.16;89.00
59417;BME280;45222;52.458;20.914;2023-03-25T04:13:04;99513.45;;;7.14;89.17
59417;BME280;45222;52.458;20.914;2023-03-25T04:16:52;99512.46;;;7.09;89.05
59417;BME280;45222;52.458;20.914;2023-03-25T04:20:38;99511.55;;;7.03;89.11
59417;BME280;45222;52.458;20.914;2023-03-25T04:24:28;99516.91;;;7.01;89.18
59417;BME280;45222;52.458;20.914;2023-03-25T04:28:14;99517.96;;;7.02;89.28
59417;BME280;45222;52.458;20.914;2023-03-25T04:32:01;99520.04;;;7.02;89.52
59417;BME280;45222;52.458;20.914;2023-03-25T04:35:46;99524.96;;;7.03;89.63
59417;BME280;45222;52.458;20.914;2023-03-25T04:39:34;99532.75;;;6.98;89.42
59417;BME280;45222;52.458;20.914;2023-03-25T04:43:19;99532.98;;;6.94;89.59
59417;BME280;45222;52.458;20.914;2023-03-25T04:47:06;99534.82;;;6.92;89.72
59417;BME280;45222;52.458;20.914;2023-03-25T04:50:55;99534.09;;;6.93;89.80
59417;BME280;45222;52.458;20.914;2023-03-25T04:54:41;99537.55;;;6.94;89.89
59417;BME280;45222;52.458;20.914;2023-03-25T04:58:28;99529.36;;;6.95;90.10
59417;BME280;45222;52.458;20.914;2023-03-25T05:02:13;99522.48;;;6.95;89.94
59417;BME280;45222;52.458;20.914;2023-03-25T05:05:58;99522.27;;;6.96;89.92
59417;BME280;45222;52.458;20.914;2023-03-25T05:09:43;99515.08;;;6.99;89.90
59417;BME280;45222;52.458;20.914;2023-03-25T05:13:28;99523.04;;;7.03;90.01
59417;BME280;45222;52.458;20.914;2023-03-25T05:17:15;99530.30;;;7.06;89.92
59417;BME280;45222;52.458;20.914;2023-03-25T05:21:00;99536.25;;;7.11;90.12
59417;BME280;45222;52.458;20.914;2023-03-25T05:24:46;99544.79;;;7.17;89.59
59417;BME280;45222;52.458;20.914;2023-03-25T05:28:31;99534.80;;;7.22;89.24
59417;BME280;45222;52.458;20.914;2023-03-25T05:32:17;99537.85;;;7.29;88.93
59417;BME280;45222;52.458;20.914;2023-03-25T05:36:02;99544.89;;;7.30;88.90
59417;BME280;45222;52.458;20.914;2023-03-25T05:39:58;99550.64;;;7.28;89.01
59417;BME280;45222;52.458;20.914;2023-03-25T05:43:44;99549.53;;;7.29;89.27
59417;BME280;45222;52.458;20.914;2023-03-25T05:47:30;99544.06;;;7.36;89.55
59417;BME280;45222;52.458;20.914;2023-03-25T05:51:17;99540.60;;;7.46;88.92
59417;BME280;45222;52.458;20.914;2023-03-25T05:55:08;99545.29;;;7.51;88.73
59417;BME280;45222;52.458;20.914;2023-03-25T05:58:55;99540.89;;;7.58;88.62
59417;BME280;45222;52.458;20.914;2023-03-25T06:02:41;99544.36;;;7.66;88.63
59417;BME280;45222;52.458;20.914;2023-03-25T06:06:28;99548.44;;;7.73;88.74
59417;BME280;45222;52.458;20.914;2023-03-25T06:10:13;99555.45;;;7.78;88.48
59417;BME280;45222;52.458;20.914;2023-03-25T06:14:00;99559.96;;;7.76;88.26
59417;BME280;45222;52.458;20.914;2023-03-25T06:17:45;99571.83;;;7.73;88.19
59417;BME280;45222;52.458;20.914;2023-03-25T06:21:32;99568.90;;;7.71;88.52
59417;BME280;45222;52.458;20.914;2023-03-25T06:25:19;99570.44;;;7.73;88.81
59417;BME280;45222;52.458;20.914;2023-03-25T06:29:04;99571.45;;;7.77;88.81
59417;BME280;45222;52.458;20.914;2023-03-25T06:32:49;99567.04;;;7.80;89.00
59417;BME280;45222;52.458;20.914;2023-03-25T06:36:35;99566.98;;;7.85;88.92
59417;BME280;45222;52.458;20.914;2023-03-25T06:40:20;99564.42;;;7.90;88.87
59417;BME280;45222;52.458;20.914;2023-03-25T06:44:07;99565.09;;;7.98;88.91
59417;BME280;45222;52.458;20.914;2023-03-25T06:47:54;99569.46;;;8.02;88.97
59417;BME280;45222;52.458;20.914;2023-03-25T06:51:39;99566.59;;;8.07;89.12
59417;BME280;45222;52.458;20.914;2023-03-25T06:55:24;99559.00;;;8.13;88.99
59417;BME280;45222;52.458;20.914;2023-03-25T06:59:09;99550.13;;;8.21;88.96
59417;BME280;45222;52.458;20.914;2023-03-25T07:02:54;99546.48;;;8.26;89.08
59417;BME280;45222;52.458;20.914;2023-03-25T07:06:39;99536.92;;;8.36;89.11
59417;BME280;45222;52.458;20.914;2023-03-25T07:10:24;99545.61;;;8.53;88.92
59417;BME280;45222;52.458;20.914;2023-03-25T07:14:09;99547.21;;;8.70;88.70
59417;BME280;45222;52.458;20.914;2023-03-25T07:17:55;99550.89;;;8.81;88.32
59417;BME280;45222;52.458;20.914;2023-03-25T07:21:40;99543.95;;;8.88;88.12
59417;BME280;45222;52.458;20.914;2023-03-25T07:25:25;99547.19;;;8.90;87.94
59417;BME280;45222;52.458;20.914;2023-03-25T07:29:10;99546.45;;;8.94;88.02
59417;BME280;45222;52.458;20.914;2023-03-25T07:32:55;99538.84;;;9.00;87.62
59417;BME280;45222;52.458;20.914;2023-03-25T07:36:40;99534.20;;;9.10;87.47
59417;BME280;45222;52.458;20.914;2023-03-25T07:40:25;99542.36;;;9.26;87.33
59417;BME280;45222;52.458;20.914;2023-03-25T07:44:10;99545.70;;;9.46;87.43
59417;BME280;45222;52.458;20.914;2023-03-25T07:47:56;99542.05;;;9.69;86.98
59417;BME280;45222;52.458;20.914;2023-03-25T07:51:41;99545.02;;;9.85;86.40
59417;BME280;45222;52.458;20.914;2023-03-25T07:55:26;99547.98;;;9.98;85.63
59417;BME280;45222;52.458;20.914;2023-03-25T07:59:11;99550.45;;;10.11;85.01
59417;BME280;45222;52.458;20.914;2023-03-25T08:02:57;99551.84;;;10.23;84.48
59417;BME280;45222;52.458;20.914;2023-03-25T08:06:42;99550.40;;;10.38;84.15
59417;BME280;45222;52.458;20.914;2023-03-25T08:10:27;99549.79;;;10.52;84.00
59417;BME280;45222;52.458;20.914;2023-03-25T08:14:13;99551.05;;;10.60;83.31
59417;BME280;45222;52.458;20.914;2023-03-25T08:17:58;99557.52;;;10.68;82.86
59417;BME280;45222;52.458;20.914;2023-03-25T08:21:43;99558.04;;;10.83;82.17
59417;BME280;45222;52.458;20.914;2023-03-25T08:25:29;99550.94;;;10.94;82.29
59417;BME280;45222;52.458;20.914;2023-03-25T08:29:14;99544.48;;;11.06;81.73
59417;BME280;45222;52.458;20.914;2023-03-25T08:33:00;99538.60;;;11.14;81.26
59417;BME280;45222;52.458;20.914;2023-03-25T08:36:45;99529.45;;;11.24;80.82
59417;BME280;45222;52.458;20.914;2023-03-25T08:40:31;99526.11;;;11.34;80.53
59417;BME280;45222;52.458;20.914;2023-03-25T08:44:16;99526.27;;;11.51;80.18
59417;BME280;45222;52.458;20.914;2023-03-25T08:48:04;99523.86;;;11.69;79.96
59417;BME280;45222;52.458;20.914;2023-03-25T08:51:50;99528.45;;;11.90;79.43
59417;BME280;45222;52.458;20.914;2023-03-25T08:55:35;99528.13;;;12.09;78.81
59417;BME280;45222;52.458;20.914;2023-03-25T08:59:21;99522.59;;;12.33;78.33
59417;BME280;45222;52.458;20.914;2023-03-25T09:03:06;99519.27;;;12.50;76.12
59417;BME280;45222;52.458;20.914;2023-03-25T09:06:51;99520.05;;;12.59;75.37
59417;BME280;45222;52.458;20.914;2023-03-25T09:10:36;99518.26;;;12.69;74.73
59417;BME280;45222;52.458;20.914;2023-03-25T09:14:21;99517.36;;;12.84;73.65
59417;BME280;45222;52.458;20.914;2023-03-25T09:18:06;99517.69;;;12.97;73.49
59417;BME280;45222;52.458;20.914;2023-03-25T09:21:52;99513.61;;;13.05;71.68
59417;BME280;45222;52.458;20.914;2023-03-25T09:25:37;99516.89;;;13.14;71.93
59417;BME280;45222;52.458;20.914;2023-03-25T09:29:23;99513.05;;;13.22;71.26
59417;BME280;45222;52.458;20.914;2023-03-25T09:33:08;99513.23;;;13.29;71.29
59417;BME280;45222;52.458;20.914;2023-03-25T09:36:53;99507.44;;;13.43;70.48
59417;BME280;45222;52.458;20.914;2023-03-25T09:40:41;99501.30;;;13.54;70.52
59417;BME280;45222;52.458;20.914;2023-03-25T09:44:29;99508.14;;;13.65;70.03
59417;BME280;45222;52.458;20.914;2023-03-25T09:48:25;99503.70;;;13.79;69.45
59417;BME280;45222;52.458;20.914;2023-03-25T09:52:15;99496.42;;;13.90;68.51
59417;BME280;45222;52.458;20.914;2023-03-25T09:56:03;99493.09;;;14.01;68.65
59417;BME280;45222;52.458;20.914;2023-03-25T09:59:50;99488.30;;;14.19;68.21
59417;BME280;45222;52.458;20.914;2023-03-25T10:03:44;99495.13;;;14.21;66.82
59417;BME280;45222;52.458;20.914;2023-03-25T10:07:47;99495.52;;;14.18;65.62
59417;BME280;45222;52.458;20.914;2023-03-25T10:11:41;99495.36;;;14.20;65.20
59417;BME280;45222;52.458;20.914;2023-03-25T10:15:34;99496.11;;;14.15;64.53
59417;BME280;45222;52.458;20.914;2023-03-25T10:19:30;99491.17;;;14.10;64.24
59417;BME280;45222;52.458;20.914;2023-03-25T10:23:25;99491.63;;;14.06;63.89
59417;BME280;45222;52.458;20.914;2023-03-25T10:27:21;99493.40;;;14.06;64.17
59417;BME280;45222;52.458;20.914;2023-03-25T10:31:12;99493.33;;;14.19;64.23
59417;BME280;45222;52.458;20.914;2023-03-25T10:35:02;99487.76;;;14.31;64.14
59417;BME280;45222;52.458;20.914;2023-03-25T10:38:53;99485.85;;;14.39;64.13
59417;BME280;45222;52.458;20.914;2023-03-25T10:42:40;99480.86;;;14.48;63.67
59417;BME280;45222;52.458;20.914;2023-03-25T10:46:32;99472.58;;;14.69;63.41
59417;BME280;45222;52.458;20.914;2023-03-25T10:50:21;99467.46;;;14.80;62.63
59417;BME280;45222;52.458;20.914;2023-03-25T10:54:11;99467.87;;;14.93;62.62
59417;BME280;45222;52.458;20.914;2023-03-25T10:57:57;99462.93;;;15.07;61.76
59417;BME280;45222;52.458;20.914;2023-03-25T11:01:43;99460.13;;;15.28;61.19
59417;BME280;45222;52.458;20.914;2023-03-25T11:05:28;99462.20;;;15.40;59.73
59417;BME280;45222;52.458;20.914;2023-03-25T11:09:23;99457.21;;;15.29;59.00
59417;BME280;45222;52.458;20.914;2023-03-25T11:13:11;99454.59;;;15.20;59.71
59417;BME280;45222;52.458;20.914;2023-03-25T11:17:01;99447.52;;;15.20;58.10
59417;BME280;45222;52.458;20.914;2023-03-25T11:20:48;99436.31;;;15.39;57.61
59417;BME280;45222;52.458;20.914;2023-03-25T11:24:41;99435.27;;;15.43;57.91
59417;BME280;45222;52.458;20.914;2023-03-25T11:28:35;99425.72;;;15.65;57.66
59417;BME280;45222;52.458;20.914;2023-03-25T11:32:30;99423.55;;;15.84;57.39
59417;BME280;45222;52.458;20.914;2023-03-25T11:36:26;99418.91;;;15.86;56.70
59417;BME280;45222;52.458;20.914;2023-03-25T11:40:15;99411.15;;;15.95;56.16
59417;BME280;45222;52.458;20.914;2023-03-25T11:44:02;99406.94;;;15.92;56.29
59417;BME280;45222;52.458;20.914;2023-03-25T11:47:48;99406.88;;;15.70;56.18
59417;BME280;45222;52.458;20.914;2023-03-25T11:51:35;99401.80;;;15.32;56.33
59417;BME280;45222;52.458;20.914;2023-03-25T11:55:23;99400.98;;;14.90;56.65
59417;BME280;45222;52.458;20.914;2023-03-25T11:59:09;99411.56;;;14.58;58.43
59417;BME280;45222;52.458;20.914;2023-03-25T12:03:03;99413.45;;;14.25;60.16
59417;BME280;45222;52.458;20.914;2023-03-25T12:06:57;99397.73;;;14.09;62.41
59417;BME280;45222;52.458;20.914;2023-03-25T12:10:50;99396.39;;;14.33;63.42
59417;BME280;45222;52.458;20.914;2023-03-25T12:14:43;99394.61;;;14.55;64.02
59417;BME280;45222;52.458;20.914;2023-03-25T12:18:43;99387.52;;;14.70;65.23
59417;BME280;45222;52.458;20.914;2023-03-25T12:22:43;99388.74;;;14.82;64.90
59417;BME280;45222;52.458;20.914;2023-03-25T12:26:37;99388.73;;;14.82;63.41
59417;BME280;45222;52.458;20.914;2023-03-25T12:30:36;99384.71;;;14.98;62.62
59417;BME280;45222;52.458;20.914;2023-03-25T12:34:35;99392.33;;;15.21;61.70
59417;BME280;45222;52.458;20.914;2023-03-25T12:38:34;99391.05;;;15.38;60.93
59417;BME280;45222;52.458;20.914;2023-03-25T12:42:32;99379.14;;;15.57;59.45
59417;BME280;45222;52.458;20.914;2023-03-25T12:50:36;99367.52;;;15.73;58.26
59417;BME280;45222;52.458;20.914;2023-03-25T12:54:33;99368.59;;;15.71;57.15
59417;BME280;45222;52.458;20.914;2023-03-25T12:58:47;99366.86;;;15.38;57.72
59417;BME280;45222;52.458;20.914;2023-03-25T13:02:58;99366.45;;;14.92;58.56
59417;BME280;45222;52.458;20.914;2023-03-25T13:06:51;99364.52;;;14.58;59.63
59417;BME280;45222;52.458;20.914;2023-03-25T13:10:43;99363.37;;;14.36;60.43
59417;BME280;45222;52.458;20.914;2023-03-25T13:14:35;99364.08;;;14.21;61.13
59417;BME280;45222;52.458;20.914;2023-03-25T13:18:25;99361.77;;;14.05;61.09
59417;BME280;45222;52.458;20.914;2023-03-25T13:22:17;99364.03;;;13.94;62.06
59417;BME280;45222;52.458;20.914;2023-03-25T13:26:09;99363.48;;;13.85;62.77
59417;BME280;45222;52.458;20.914;2023-03-25T13:29:56;99360.27;;;13.64;62.31
59417;BME280;45222;52.458;20.914;2023-03-25T13:33:44;99358.77;;;13.49;62.71
59417;BME280;45222;52.458;20.914;2023-03-25T13:37:35;99343.04;;;13.35;63.44
59417;BME280;45222;52.458;20.914;2023-03-25T13:41:27;99336.77;;;13.21;63.75
59417;BME280;45222;52.458;20.914;2023-03-25T13:45:17;99330.38;;;13.16;64.43
59417;BME280;45222;52.458;20.914;2023-03-25T13:49:08;99332.81;;;13.42;65.20
59417;BME280;45222;52.458;20.914;2023-03-25T13:53:03;99328.33;;;13.87;64.86
59417;BME280;45222;52.458;20.914;2023-03-25T14:01:46;99327.73;;;14.10;63.79
59417;BME280;45222;52.458;20.914;2023-03-25T14:10:36;99322.20;;;13.78;62.61
59417;BME280;45222;52.458;20.914;2023-03-25T14:14:23;99315.15;;;13.91;62.15
59417;BME280;45222;52.458;20.914;2023-03-25T14:18:16;99308.52;;;14.34;61.25
59417;BME280;45222;52.458;20.914;2023-03-25T14:22:09;99306.48;;;14.79;59.31
59417;BME280;45222;52.458;20.914;2023-03-25T14:25:58;99305.57;;;15.07;57.64
59417;BME280;45222;52.458;20.914;2023-03-25T14:29:51;99298.30;;;15.11;57.02
59417;BME280;45222;52.458;20.914;2023-03-25T14:34:19;99300.02;;;15.09;57.28
59417;BME280;45222;52.458;20.914;2023-03-25T14:38:25;99304.39;;;15.04;56.99
59417;BME280;45222;52.458;20.914;2023-03-25T14:42:40;99312.10;;;14.73;56.40
59417;BME280;45222;52.458;20.914;2023-03-25T14:46:34;99311.34;;;14.34;57.04
59417;BME280;45222;52.458;20.914;2023-03-25T14:50:33;99308.25;;;14.08;58.13
59417;BME280;45222;52.458;20.914;2023-03-25T14:54:26;99312.22;;;13.85;57.99
59417;BME280;45222;52.458;20.914;2023-03-25T14:58:19;99320.38;;;13.60;58.37
59417;BME280;45222;52.458;20.914;2023-03-25T15:02:13;99317.50;;;13.39;58.33
59417;BME280;45222;52.458;20.914;2023-03-25T15:06:00;99328.52;;;13.16;58.25
59417;BME280;45222;52.458;20.914;2023-03-25T15:09:50;99349.07;;;12.85;57.70
59417;BME280;45222;52.458;20.914;2023-03-25T15:13:39;99355.58;;;12.35;57.01
59417;BME280;45222;52.458;20.914;2023-03-25T15:17:45;99366.84;;;11.96;57.87
59417;BME280;45222;52.458;20.914;2023-03-25T15:22:17;99364.27;;;11.59;59.97
59417;BME280;45222;52.458;20.914;2023-03-25T15:26:03;99355.40;;;11.10;62.45
59417;BME280;45222;52.458;20.914;2023-03-25T15:29:57;99352.67;;;10.76;63.70
59417;BME280;45222;52.458;20.914;2023-03-25T15:33:56;99348.42;;;10.48;65.18
59417;BME280;45222;52.458;20.914;2023-03-25T15:38:00;99347.92;;;10.28;67.05
59417;BME280;45222;52.458;20.914;2023-03-25T15:42:02;99350.11;;;10.13;68.37
59417;BME280;45222;52.458;20.914;2023-03-25T15:50:29;99366.79;;;9.84;69.97
59417;BME280;45222;52.458;20.914;2023-03-25T15:54:28;99367.55;;;9.86;70.29
59417;BME280;45222;52.458;20.914;2023-03-25T15:58:20;99378.88;;;9.87;70.59
59417;BME280;45222;52.458;20.914;2023-03-25T16:02:14;99379.20;;;9.85;71.47
59417;BME280;45222;52.458;20.914;2023-03-25T16:06:03;99383.41;;;9.82;71.50
59417;BME280;45222;52.458;20.914;2023-03-25T16:09:50;99385.83;;;9.81;71.32
59417;BME280;45222;52.458;20.914;2023-03-25T16:13:36;99384.10;;;9.77;71.42
59417;BME280;45222;52.458;20.914;2023-03-25T16:17:24;99390.09;;;9.72;71.29
59417;BME280;45222;52.458;20.914;2023-03-25T16:21:12;99397.88;;;9.66;72.19
59417;BME280;45222;52.458;20.914;2023-03-25T16:25:02;99404.00;;;9.62;72.66
59417;BME280;45222;52.458;20.914;2023-03-25T16:28:48;99418.26;;;9.58;73.51
59417;BME280;45222;52.458;20.914;2023-03-25T16:32:33;99429.18;;;9.53;73.78
59417;BME280;45222;52.458;20.914;2023-03-25T16:36:19;99424.09;;;9.43;73.90
59417;BME280;45222;52.458;20.914;2023-03-25T16:40:06;99415.19;;;9.35;74.17
59417;BME280;45222;52.458;20.914;2023-03-25T16:43:53;99408.42;;;9.29;74.32
59417;BME280;45222;52.458;20.914;2023-03-25T16:47:39;99405.88;;;9.27;74.59
59417;BME280;45222;52.458;20.914;2023-03-25T16:51:27;99397.42;;;9.26;74.97
59417;BME280;45222;52.458;20.914;2023-03-25T16:55:30;99397.77;;;9.23;74.98
59417;BME280;45222;52.458;20.914;2023-03-25T16:59:20;99395.86;;;9.20;75.23
59417;BME280;45222;52.458;20.914;2023-03-25T17:03:12;99395.48;;;9.10;75.47
59417;BME280;45222;52.458;20.914;2023-03-25T17:06:59;99394.26;;;8.98;75.72
59417;BME280;45222;52.458;20.914;2023-03-25T17:10:47;99398.55;;;8.88;75.96
59417;BME280;45222;52.458;20.914;2023-03-25T17:14:37;99401.23;;;8.78;76.39
59417;BME280;45222;52.458;20.914;2023-03-25T17:18:27;99395.77;;;8.71;77.01
59417;BME280;45222;52.458;20.914;2023-03-25T17:22:19;99399.54;;;8.67;77.30
59417;BME280;45222;52.458;20.914;2023-03-25T17:26:10;99407.91;;;8.63;77.49
59417;BME280;45222;52.458;20.914;2023-03-25T17:30:14;99418.14;;;8.58;77.47
59417;BME280;45222;52.458;20.914;2023-03-25T17:34:09;99414.73;;;8.48;77.54
59417;BME280;45222;52.458;20.914;2023-03-25T17:37:56;99411.65;;;8.43;77.92
59417;BME280;45222;52.458;20.914;2023-03-25T17:41:42;99412.05;;;8.39;78.28
59417;BME280;45222;52.458;20.914;2023-03-25T17:45:27;99405.70;;;8.42;78.32
59417;BME280;45222;52.458;20.914;2023-03-25T17:49:15;99414.11;;;8.40;78.33
59417;BME280;45222;52.458;20.914;2023-03-25T17:53:01;99425.09;;;8.30;78.46
59417;BME280;45222;52.458;20.914;2023-03-25T17:56:46;99422.18;;;8.25;78.51
59417;BME280;45222;52.458;20.914;2023-03-25T18:00:31;99427.42;;;8.23;78.62
59417;BME280;45222;52.458;20.914;2023-03-25T18:04:18;99426.25;;;8.22;78.88
59417;BME280;45222;52.458;20.914;2023-03-25T18:08:04;99429.61;;;8.19;79.12
59417;BME280;45222;52.458;20.914;2023-03-25T18:11:51;99431.98;;;8.11;79.23
59417;BME280;45222;52.458;20.914;2023-03-25T18:15:37;99439.07;;;8.00;79.59
59417;BME280;45222;52.458;20.914;2023-03-25T18:19:24;99438.13;;;7.92;79.69
59417;BME280;45222;52.458;20.914;2023-03-25T18:23:10;99436.77;;;7.87;79.91
59417;BME280;45222;52.458;20.914;2023-03-25T18:26:56;99436.70;;;7.88;80.07
59417;BME280;45222;52.458;20.914;2023-03-25T18:30:44;99438.08;;;7.92;80.30
59417;BME280;45222;52.458;20.914;2023-03-25T18:34:30;99434.69;;;7.93;80.35
59417;BME280;45222;52.458;20.914;2023-03-25T18:38:18;99434.44;;;7.91;80.41
59417;BME280;45222;52.458;20.914;2023-03-25T18:42:04;99429.63;;;7.88;80.37
59417;BME280;45222;52.458;20.914;2023-03-25T18:45:50;99426.77;;;7.92;80.46
59417;BME280;45222;52.458;20.914;2023-03-25T18:49:35;99431.10;;;7.97;80.65
59417;BME280;45222;52.458;20.914;2023-03-25T18:53:21;99437.14;;;8.00;80.77
59417;BME280;45222;52.458;20.914;2023-03-25T18:57:08;99436.69;;;7.98;80.93
59417;BME280;45222;52.458;20.914;2023-03-25T19:00:53;99434.09;;;7.94;81.05
59417;BME280;45222;52.458;20.914;2023-03-25T19:04:39;99434.42;;;7.88;81.07
59417;BME280;45222;52.458;20.914;2023-03-25T19:08:24;99435.23;;;7.83;81.47
59417;BME280;45222;52.458;20.914;2023-03-25T19:12:10;99427.32;;;7.78;81.56
59417;BME280;45222;52.458;20.914;2023-03-25T19:15:54;99426.89;;;7.76;81.94
59417;BME280;45222;52.458;20.914;2023-03-25T19:19:40;99428.88;;;7.75;82.24
59417;BME280;45222;52.458;20.914;2023-03-25T19:23:26;99429.72;;;7.73;82.25
59417;BME280;45222;52.458;20.914;2023-03-25T19:27:12;99432.39;;;7.69;81.93
59417;BME280;45222;52.458;20.914;2023-03-25T19:30:59;99433.23;;;7.66;81.83
59417;BME280;45222;52.458;20.914;2023-03-25T19:34:45;99427.25;;;7.66;81.93
59417;BME280;45222;52.458;20.914;2023-03-25T19:38:34;99422.39;;;7.68;81.89
59417;BME280;45222;52.458;20.914;2023-03-25T19:42:20;99418.48;;;7.71;81.88
59417;BME280;45222;52.458;20.914;2023-03-25T19:46:05;99410.43;;;7.76;81.89
59417;BME280;45222;52.458;20.914;2023-03-25T19:49:51;99412.81;;;7.78;81.63
59417;BME280;45222;52.458;20.914;2023-03-25T19:53:36;99409.77;;;7.75;81.43
59417;BME280;45222;52.458;20.914;2023-03-25T19:57:22;99416.70;;;7.71;81.25
59417;BME280;45222;52.458;20.914;2023-03-25T20:01:07;99419.11;;;7.66;81.21
59417;BME280;45222;52.458;20.914;2023-03-25T20:04:52;99420.52;;;7.62;81.26
59417;BME280;45222;52.458;20.914;2023-03-25T20:08:37;99421.91;;;7.59;81.32
59417;BME280;45222;52.458;20.914;2023-03-25T20:12:23;99418.96;;;7.55;81.29
59417;BME280;45222;52.458;20.914;2023-03-25T20:16:08;99418.55;;;7.45;80.91
59417;BME280;45222;52.458;20.914;2023-03-25T20:19:54;99420.15;;;7.35;80.77
59417;BME280;45222;52.458;20.914;2023-03-25T20:23:39;99417.02;;;7.27;80.75
59417;BME280;45222;52.458;20.914;2023-03-25T20:27:25;99416.10;;;7.20;80.72
59417;BME280;45222;52.458;20.914;2023-03-25T20:31:15;99417.86;;;7.13;80.95
59417;BME280;45222;52.458;20.914;2023-03-25T20:35:02;99422.54;;;7.04;80.93
59417;BME280;45222;52.458;20.914;2023-03-25T20:38:47;99425.11;;;6.95;80.74